Time;durP1;ratioP1;P1;durP2;ratioP2;P2;SDS_P1;SDS_P2;PMS_P1;PMS_P2;Temp;Humidity;BMP_temperature;BMP_pressure;BME280_temperature;BME280_humidity;BME280_pressure;Samples;Min_cycle;Max_cycle;Signal;HPM_P1;HPM_P2
2022/11/07 00:02:10;;;;;;;2.67;1.13;;;;;;;;;;5019877;28;20037;-76
2022/11/07 00:04:36;;;;;;;3.67;1.00;;;;;;;;;;5025100;28;20033;-76
2022/11/07 00:07:03;;;;;;;2.60;1.10;;;;;;;;;;5019979;28;20045;-76
2022/11/07 00:09:29;;;;;;;1.83;1.00;;;;;;;;;;5030736;28;20034;-77
2022/11/07 00:11:57;;;;;;;3.67;1.20;;;;;;;;;;5018004;28;20033;-76
2022/11/07 00:14:23;;;;;;;4.60;1.00;;;;;;;;;;5018841;28;20034;-76
2022/11/07 00:16:49;;;;;;;2.13;1.00;;;;;;;;;;5027167;28;20038;-76
2022/11/07 00:19:18;;;;;;;1.97;1.00;;;;;;;;;;5029637;28;20033;-76
2022/11/07 00:21:44;;;;;;;1.70;0.80;;;;;;;;;;5025128;28;20034;-76
2022/11/07 00:24:10;;;;;;;2.23;1.10;;;;;;;;;;5026717;28;20026;-76
2022/11/07 00:26:37;;;;;;;3.57;1.37;;;;;;;;;;5026780;28;20520;-76
2022/11/07 00:29:03;;;;;;;1.53;0.93;;;;;;;;;;5015033;28;20037;-76
2022/11/07 00:31:29;;;;;;;2.43;1.20;;;;;;;;;;5033637;28;20029;-77
2022/11/07 00:33:56;;;;;;;2.80;1.17;;;;;;;;;;5029379;28;20454;-75
2022/11/07 00:36:23;;;;;;;3.30;1.33;;;;;;;;;;5032775;28;20071;-77
2022/11/07 00:38:50;;;;;;;4.03;1.37;;;;;;;;;;5017435;28;20125;-75
2022/11/07 00:41:16;;;;;;;3.40;1.47;;;;;;;;;;5016766;28;20030;-76
2022/11/07 00:43:42;;;;;;;2.07;0.93;;;;;;;;;;5019800;28;20072;-76
2022/11/07 00:46:08;;;;;;;4.47;1.00;;;;;;;;;;5015608;28;20021;-76
2022/11/07 00:48:35;;;;;;;2.90;1.23;;;;;;;;;;5017725;28;20034;-77
2022/11/07 00:51:09;;;;;;;2.07;1.00;;;;;;;;;;5030208;28;20124;-75
2022/11/07 00:53:35;;;;;;;2.43;0.90;;;;;;;;;;5016126;28;20048;-77
2022/11/07 00:56:05;;;;;;;2.13;0.87;;;;;;;;;;5016107;28;20034;-77
2022/11/07 00:58:31;;;;;;;1.23;0.70;;;;;;;;;;5027688;28;20029;-76
2022/11/07 01:01:00;;;;;;;2.43;0.90;;;;;;;;;;5017025;28;20386;-76
2022/11/07 01:06:11;;;;;;;3.70;0.97;;;;;;;;;;5016044;28;20099;-76
2022/11/07 01:08:37;;;;;;;3.13;0.70;;;;;;;;;;5028015;28;20037;-76
2022/11/07 01:11:06;;;;;;;1.93;0.90;;;;;;;;;;5026861;28;20041;-76
2022/11/07 01:13:35;;;;;;;1.77;0.80;;;;;;;;;;5033094;28;20163;-76
2022/11/07 01:16:01;;;;;;;3.17;0.77;;;;;;;;;;5014750;28;20470;-77
2022/11/07 01:18:27;;;;;;;1.27;0.90;;;;;;;;;;5016823;28;20435;-76
2022/11/07 01:20:53;;;;;;;3.03;0.90;;;;;;;;;;5028114;28;20030;-76
2022/11/07 01:23:21;;;;;;;2.93;1.03;;;;;;;;;;5016561;28;20034;-77
2022/11/07 01:25:47;;;;;;;1.83;0.63;;;;;;;;;;5014933;28;21652;-77
2022/11/07 01:28:13;;;;;;;2.00;0.67;;;;;;;;;;5026008;28;20438;-77
2022/11/07 01:30:40;;;;;;;1.27;0.70;;;;;;;;;;5014233;28;20065;-77
2022/11/07 01:33:06;;;;;;;1.93;0.70;;;;;;;;;;5017108;28;20064;-75
2022/11/07 01:35:32;;;;;;;5.03;1.23;;;;;;;;;;5030529;28;20047;-77
2022/11/07 01:37:58;;;;;;;3.47;0.73;;;;;;;;;;5014900;28;20067;-76
2022/11/07 01:40:24;;;;;;;3.80;1.10;;;;;;;;;;5017014;28;20438;-75
2022/11/07 01:42:50;;;;;;;3.17;0.90;;;;;;;;;;5015714;28;20036;-77
2022/11/07 01:45:22;;;;;;;3.40;0.97;;;;;;;;;;5017322;28;20033;-76
2022/11/07 01:47:49;;;;;;;2.63;1.00;;;;;;;;;;5026068;28;20021;-77
2022/11/07 01:50:15;;;;;;;3.37;0.80;;;;;;;;;;5026161;28;20040;-76
2022/11/07 01:52:43;;;;;;;2.27;0.87;;;;;;;;;;5015209;28;20552;-77
2022/11/07 01:55:12;;;;;;;3.60;0.87;;;;;;;;;;5023329;28;20687;-77
2022/11/07 01:57:45;;;;;;;3.70;1.10;;;;;;;;;;5016359;28;20083;-76
2022/11/07 02:00:14;;;;;;;3.23;1.00;;;;;;;;;;5014828;28;20113;-77
2022/11/07 02:02:41;;;;;;;2.30;0.80;;;;;;;;;;5028149;28;20034;-77
2022/11/07 02:05:08;;;;;;;5.43;0.93;;;;;;;;;;5016552;28;20037;-75
2022/11/07 02:07:37;;;;;;;2.43;0.90;;;;;;;;;;5016231;28;20477;-77
2022/11/07 02:10:03;;;;;;;3.47;1.40;;;;;;;;;;5015632;28;20061;-75
2022/11/07 02:12:29;;;;;;;2.23;1.30;;;;;;;;;;5027773;28;20029;-77
2022/11/07 02:14:56;;;;;;;6.70;1.30;;;;;;;;;;5017161;28;20056;-77
2022/11/07 02:17:22;;;;;;;4.00;1.27;;;;;;;;;;5029070;28;20096;-77
2022/11/07 02:19:52;;;;;;;3.77;1.23;;;;;;;;;;5017784;28;20035;-77
2022/11/07 02:22:37;;;;;;;5.60;1.40;;;;;;;;;;5016689;28;20026;-76
2022/11/07 02:25:05;;;;;;;4.37;1.60;;;;;;;;;;5026113;28;20034;-76
2022/11/07 02:27:33;;;;;;;3.33;1.43;;;;;;;;;;5025936;28;20026;-77
2022/11/07 02:30:04;;;;;;;6.43;2.03;;;;;;;;;;5029837;28;20037;-76
2022/11/07 02:32:30;;;;;;;7.00;1.87;;;;;;;;;;5015893;28;20072;-76
2022/11/07 02:35:00;;;;;;;7.93;1.30;;;;;;;;;;5027201;28;20053;-77
2022/11/07 02:37:36;;;;;;;6.67;1.67;;;;;;;;;;5022158;28;20072;-77
2022/11/07 02:40:05;;;;;;;3.07;1.30;;;;;;;;;;5028059;28;20029;-77
2022/11/07 02:42:44;;;;;;;4.30;1.60;;;;;;;;;;5026303;28;20030;-77
2022/11/07 02:45:18;;;;;;;4.00;1.50;;;;;;;;;;5025216;28;20529;-77
2022/11/07 02:47:45;;;;;;;3.30;1.80;;;;;;;;;;5029506;28;20080;-77
2022/11/07 02:50:12;;;;;;;5.00;1.87;;;;;;;;;;5024973;28;20038;-76
2022/11/07 02:52:39;;;;;;;4.10;1.70;;;;;;;;;;5029020;28;20045;-77
2022/11/07 02:55:05;;;;;;;5.33;1.60;;;;;;;;;;5017085;28;20030;-76
2022/11/07 02:57:31;;;;;;;5.27;1.70;;;;;;;;;;5022225;28;20033;-77
2022/11/07 02:59:57;;;;;;;5.70;1.90;;;;;;;;;;5018116;28;20026;-76
2022/11/07 03:02:24;;;;;;;3.97;1.50;;;;;;;;;;5033363;28;20085;-77
2022/11/07 03:04:50;;;;;;;7.13;1.70;;;;;;;;;;5021319;28;20030;-76
2022/11/07 03:07:16;;;;;;;4.97;1.63;;;;;;;;;;5029560;28;20022;-77
2022/11/07 03:09:42;;;;;;;6.50;2.30;;;;;;;;;;5032377;28;20165;-76
2022/11/07 03:12:08;;;;;;;5.87;1.67;;;;;;;;;;5019123;28;20034;-76
2022/11/07 03:14:37;;;;;;;8.10;1.93;;;;;;;;;;5017259;28;20049;-75
2022/11/07 03:17:03;;;;;;;4.67;1.80;;;;;;;;;;5017306;28;20038;-76
2022/11/07 03:19:29;;;;;;;8.83;2.40;;;;;;;;;;5016887;28;20049;-75
2022/11/07 03:21:55;;;;;;;6.93;3.00;;;;;;;;;;5020208;28;20037;-77
2022/11/07 03:24:21;;;;;;;6.17;2.17;;;;;;;;;;5019314;28;20512;-77
2022/11/07 03:26:47;;;;;;;7.90;2.33;;;;;;;;;;5018339;28;20959;-76
2022/11/07 03:29:13;;;;;;;5.13;2.00;;;;;;;;;;5031504;28;20053;-77
2022/11/07 03:31:39;;;;;;;9.27;2.77;;;;;;;;;;5020935;28;20036;-77
2022/11/07 03:34:05;;;;;;;4.97;2.20;;;;;;;;;;5018385;28;20037;-76
2022/11/07 03:36:32;;;;;;;10.93;2.10;;;;;;;;;;5017343;28;21520;-77
2022/11/07 03:38:58;;;;;;;6.93;2.33;;;;;;;;;;5027186;28;20033;-77
2022/11/07 03:41:24;;;;;;;7.47;2.00;;;;;;;;;;5028639;28;20451;-77
2022/11/07 03:43:50;;;;;;;11.57;2.20;;;;;;;;;;5019736;28;20465;-76
2022/11/07 03:46:17;;;;;;;4.70;1.93;;;;;;;;;;5031650;28;20029;-77
2022/11/07 03:48:43;;;;;;;6.77;2.17;;;;;;;;;;5019397;28;20029;-77
2022/11/07 03:51:12;;;;;;;7.23;2.43;;;;;;;;;;5036811;28;20052;-76
2022/11/07 03:53:38;;;;;;;6.03;2.40;;;;;;;;;;5027983;28;20128;-76
2022/11/07 03:56:08;;;;;;;6.50;2.30;;;;;;;;;;5032777;28;20116;-77
2022/11/07 03:58:37;;;;;;;6.90;2.10;;;;;;;;;;5028344;28;20034;-76
2022/11/07 04:01:03;;;;;;;4.87;1.93;;;;;;;;;;5019420;28;20497;-77
2022/11/07 04:03:32;;;;;;;6.53;2.20;;;;;;;;;;5019646;28;20040;-77
2022/11/07 04:05:58;;;;;;;10.17;2.73;;;;;;;;;;5029875;28;20029;-76
2022/11/07 04:08:24;;;;;;;8.73;2.10;;;;;;;;;;5017223;28;20034;-76
2022/11/07 04:10:50;;;;;;;6.40;2.03;;;;;;;;;;5017547;28;20029;-76
2022/11/07 04:18:45;;;;;;;7.70;2.47;;;;;;;;;;5016118;28;20048;-76
2022/11/07 04:21:11;;;;;;;7.77;2.87;;;;;;;;;;5017462;28;20048;-77
2022/11/07 04:23:37;;;;;;;9.43;2.10;;;;;;;;;;5017488;28;20085;-75
2022/11/07 04:28:48;;;;;;;8.67;2.30;;;;;;;;;;5018126;28;20156;-77
2022/11/07 04:31:14;;;;;;;13.07;2.47;;;;;;;;;;5027248;28;20036;-76
2022/11/07 04:33:43;;;;;;;6.50;2.20;;;;;;;;;;5016996;28;20041;-77
2022/11/07 04:36:09;;;;;;;7.07;2.47;;;;;;;;;;5016357;28;20080;-77
2022/11/07 04:38:37;;;;;;;7.93;2.50;;;;;;;;;;5028457;28;20029;-75
2022/11/07 04:41:03;;;;;;;11.07;2.63;;;;;;;;;;5031920;28;20181;-76
2022/11/07 04:43:32;;;;;;;6.60;3.00;;;;;;;;;;5017212;28;20021;-77
2022/11/07 04:45:58;;;;;;;13.53;3.00;;;;;;;;;;5029386;28;20124;-77
2022/11/07 04:48:27;;;;;;;10.97;3.03;;;;;;;;;;5016006;28;20124;-76
2022/11/07 04:50:56;;;;;;;10.27;2.53;;;;;;;;;;5017880;28;20029;-76
2022/11/07 04:53:22;;;;;;;7.70;2.47;;;;;;;;;;5015083;28;20108;-77
2022/11/07 04:55:48;;;;;;;7.87;2.73;;;;;;;;;;5027626;28;20497;-76
2022/11/07 04:58:14;;;;;;;9.33;2.37;;;;;;;;;;5013760;28;20136;-76
2022/11/07 05:00:40;;;;;;;11.30;3.00;;;;;;;;;;5019939;28;20104;-76
2022/11/07 05:03:06;;;;;;;12.63;2.27;;;;;;;;;;5028040;28;20093;-76
2022/11/07 05:05:32;;;;;;;6.63;2.67;;;;;;;;;;5018592;28;20030;-76
2022/11/07 05:07:58;;;;;;;8.00;2.70;;;;;;;;;;5017924;28;20022;-77
2022/11/07 05:10:28;;;;;;;6.50;2.80;;;;;;;;;;5029574;28;20072;-76
2022/11/07 05:12:54;;;;;;;8.50;2.97;;;;;;;;;;5018812;28;20033;-77
2022/11/07 05:15:21;;;;;;;11.20;2.63;;;;;;;;;;5029712;28;20036;-76
2022/11/07 05:17:47;;;;;;;10.70;2.30;;;;;;;;;;5033541;28;20044;-77
2022/11/07 05:20:26;;;;;;;12.70;2.97;;;;;;;;;;5014058;28;20109;-76
2022/11/07 05:25:36;;;;;;;13.73;2.47;;;;;;;;;;5019772;28;20060;-76
2022/11/07 05:28:02;;;;;;;8.33;2.13;;;;;;;;;;5016569;28;20026;-77
2022/11/07 05:30:31;;;;;;;12.43;2.37;;;;;;;;;;5015599;28;20026;-76
2022/11/07 05:32:57;;;;;;;7.93;2.23;;;;;;;;;;5015537;28;20030;-77
2022/11/07 05:35:23;;;;;;;13.30;2.17;;;;;;;;;;5015765;28;20034;-75
2022/11/07 05:37:49;;;;;;;7.67;2.00;;;;;;;;;;5016316;28;20033;-77
2022/11/07 05:40:15;;;;;;;10.03;2.10;;;;;;;;;;5029138;28;20022;-76
2022/11/07 05:42:41;;;;;;;9.57;1.80;;;;;;;;;;5028081;28;20030;-76
2022/11/07 05:45:10;;;;;;;5.17;1.73;;;;;;;;;;5015854;28;20033;-76
2022/11/07 05:47:36;;;;;;;11.13;2.13;;;;;;;;;;5022431;28;20029;-76
2022/11/07 05:50:02;;;;;;;15.03;2.43;;;;;;;;;;5016053;28;20037;-76
2022/11/07 05:52:28;;;;;;;11.20;2.93;;;;;;;;;;5029476;28;20366;-77
2022/11/07 05:54:54;;;;;;;9.87;2.00;;;;;;;;;;5028352;28;20034;-77
2022/11/07 05:57:22;;;;;;;11.50;2.20;;;;;;;;;;5014639;28;20078;-75
2022/11/07 05:59:48;;;;;;;12.57;2.20;;;;;;;;;;5015232;28;20030;-76
2022/11/07 06:02:14;;;;;;;12.43;3.63;;;;;;;;;;5017952;28;20059;-77
2022/11/07 06:04:40;;;;;;;10.57;1.93;;;;;;;;;;5030103;28;20037;-76
2022/11/07 06:07:06;;;;;;;14.27;2.63;;;;;;;;;;5018651;28;20087;-76
2022/11/07 06:09:32;;;;;;;11.87;2.80;;;;;;;;;;5016463;28;20033;-77
2022/11/07 06:11:58;;;;;;;12.23;2.10;;;;;;;;;;5016118;28;20053;-77
2022/11/07 06:14:25;;;;;;;10.50;2.20;;;;;;;;;;5024244;28;20040;-77
2022/11/07 06:16:51;;;;;;;9.63;1.97;;;;;;;;;;5023473;28;20029;-77
2022/11/07 06:19:17;;;;;;;10.03;2.10;;;;;;;;;;5017057;28;20034;-77
2022/11/07 06:21:43;;;;;;;10.10;1.80;;;;;;;;;;5018670;28;20041;-77
2022/11/07 06:24:09;;;;;;;12.73;2.40;;;;;;;;;;5012690;28;20038;-76
2022/11/07 06:26:38;;;;;;;15.70;3.13;;;;;;;;;;5027361;28;20033;-77
2022/11/07 06:29:04;;;;;;;14.93;3.27;;;;;;;;;;5032308;28;20025;-77
2022/11/07 06:31:30;;;;;;;12.77;2.33;;;;;;;;;;5029604;28;20041;-77
2022/11/07 06:33:58;;;;;;;10.93;2.00;;;;;;;;;;5032237;28;20065;-77
2022/11/07 06:36:27;;;;;;;7.80;2.53;;;;;;;;;;5021173;28;20034;-76
2022/11/07 06:38:53;;;;;;;11.50;2.17;;;;;;;;;;5023402;28;20096;-78
2022/11/07 06:41:19;;;;;;;9.23;1.87;;;;;;;;;;5020811;28;20022;-76
2022/11/07 06:43:45;;;;;;;14.43;2.70;;;;;;;;;;5039859;28;20037;-77
2022/11/07 06:46:12;;;;;;;14.60;2.23;;;;;;;;;;5019672;28;20030;-77
2022/11/07 06:48:38;;;;;;;11.13;3.10;;;;;;;;;;5020337;28;20044;-76
2022/11/07 06:51:05;;;;;;;10.40;2.60;;;;;;;;;;5022106;28;20030;-77
2022/11/07 06:53:34;;;;;;;14.47;2.77;;;;;;;;;;5035703;28;20046;-75
2022/11/07 06:56:00;;;;;;;11.63;2.73;;;;;;;;;;5019735;28;20033;-77
2022/11/07 06:58:26;;;;;;;9.53;2.20;;;;;;;;;;5018312;28;20033;-77
2022/11/07 07:00:57;;;;;;;7.33;2.23;;;;;;;;;;5019200;28;20034;-76
2022/11/07 07:03:25;;;;;;;10.07;2.37;;;;;;;;;;5032470;28;20039;-76
2022/11/07 07:05:51;;;;;;;10.53;2.03;;;;;;;;;;5018268;28;20030;-76
2022/11/07 07:08:17;;;;;;;10.13;2.23;;;;;;;;;;5019093;28;20064;-77
2022/11/07 07:10:46;;;;;;;10.17;2.03;;;;;;;;;;5024045;28;20041;-78
2022/11/07 07:13:13;;;;;;;11.13;2.30;;;;;;;;;;5020784;28;20026;-76
2022/11/07 07:15:41;;;;;;;16.33;3.03;;;;;;;;;;5021290;28;20060;-78
2022/11/07 07:18:09;;;;;;;7.13;1.60;;;;;;;;;;5020969;28;22288;-77
2022/11/07 07:20:38;;;;;;;10.00;2.77;;;;;;;;;;5019308;28;20018;-76
2022/11/07 07:23:20;;;;;;;13.37;2.20;;;;;;;;;;5018422;28;20040;-77
2022/11/07 07:25:49;;;;;;;11.23;2.67;;;;;;;;;;5017835;28;20034;-78
2022/11/07 07:28:15;;;;;;;10.00;2.00;;;;;;;;;;5030207;28;20041;-76
2022/11/07 07:30:41;;;;;;;10.80;2.40;;;;;;;;;;5016874;28;20454;-77
2022/11/07 07:33:07;;;;;;;11.03;3.03;;;;;;;;;;5034513;28;20037;-77
2022/11/07 07:35:33;;;;;;;10.10;2.73;;;;;;;;;;5017379;28;20033;-76
2022/11/07 07:37:59;;;;;;;10.63;3.20;;;;;;;;;;5019379;28;20479;-76
2022/11/07 07:40:25;;;;;;;11.90;2.37;;;;;;;;;;5018435;28;20056;-77
2022/11/07 07:42:51;;;;;;;11.17;2.23;;;;;;;;;;5018735;28;20022;-76
2022/11/07 07:45:17;;;;;;;12.37;2.63;;;;;;;;;;5017051;28;20139;-77
2022/11/07 07:47:43;;;;;;;13.27;2.83;;;;;;;;;;5018627;28;20465;-77
2022/11/07 07:50:10;;;;;;;10.57;2.00;;;;;;;;;;5016858;28;20042;-76
2022/11/07 07:52:36;;;;;;;11.97;2.60;;;;;;;;;;5017099;28;20037;-77
2022/11/07 07:55:06;;;;;;;12.47;2.73;;;;;;;;;;5018238;28;20044;-77
2022/11/07 07:57:37;;;;;;;15.73;2.27;;;;;;;;;;5016474;28;20033;-76
2022/11/07 08:00:03;;;;;;;14.23;3.73;;;;;;;;;;5017284;28;20033;-77
2022/11/07 08:02:29;;;;;;;10.63;3.37;;;;;;;;;;5025011;28;20124;-76
2022/11/07 08:04:55;;;;;;;9.30;2.10;;;;;;;;;;5026832;28;20112;-76
2022/11/07 08:07:21;;;;;;;9.40;1.90;;;;;;;;;;5026718;28;20122;-76
2022/11/07 08:09:49;;;;;;;7.90;2.37;;;;;;;;;;5017778;28;20061;-77
2022/11/07 08:12:15;;;;;;;10.23;2.17;;;;;;;;;;5018410;28;20026;-76
2022/11/07 08:14:44;;;;;;;10.63;2.67;;;;;;;;;;5017986;28;20055;-76
2022/11/07 08:17:10;;;;;;;12.97;2.40;;;;;;;;;;5027661;28;20069;-77
2022/11/07 08:19:36;;;;;;;8.80;2.10;;;;;;;;;;5031239;28;20029;-76
2022/11/07 08:22:02;;;;;;;5.43;1.17;;;;;;;;;;5032528;28;20026;-76
2022/11/07 08:24:28;;;;;;;11.70;1.70;;;;;;;;;;5025726;28;20034;-76
2022/11/07 08:26:54;;;;;;;5.70;1.37;;;;;;;;;;5016723;28;20088;-76
2022/11/07 08:29:22;;;;;;;6.90;1.80;;;;;;;;;;5016842;28;20443;-78
2022/11/07 08:31:49;;;;;;;5.57;1.23;;;;;;;;;;5018071;28;20030;-77
2022/11/07 08:34:16;;;;;;;5.23;1.30;;;;;;;;;;5015923;28;20083;-77
2022/11/07 08:36:44;;;;;;;9.63;2.03;;;;;;;;;;5016125;28;20429;-76
2022/11/07 08:39:10;;;;;;;5.43;1.70;;;;;;;;;;5032930;28;20042;-76
2022/11/07 08:41:36;;;;;;;4.33;1.47;;;;;;;;;;5018455;28;20029;-77
2022/11/07 08:44:03;;;;;;;9.43;1.67;;;;;;;;;;5019233;28;20037;-77
2022/11/07 08:46:29;;;;;;;6.33;1.37;;;;;;;;;;5031459;28;20038;-75
2022/11/07 08:48:55;;;;;;;7.53;1.93;;;;;;;;;;5018891;28;20033;-77
2022/11/07 08:51:23;;;;;;;8.57;1.43;;;;;;;;;;5016158;28;20029;-77
2022/11/07 08:53:49;;;;;;;6.97;1.73;;;;;;;;;;5015521;28;20044;-77
2022/11/07 08:56:15;;;;;;;8.97;2.83;;;;;;;;;;5027397;28;20041;-75
2022/11/07 08:58:41;;;;;;;6.70;2.53;;;;;;;;;;5017955;28;20034;-76
2022/11/07 09:01:08;;;;;;;8.83;1.33;;;;;;;;;;5016662;28;20836;-76
2022/11/07 09:03:35;;;;;;;7.17;1.50;;;;;;;;;;5014659;28;20087;-77
2022/11/07 09:06:01;;;;;;;7.23;1.77;;;;;;;;;;5025750;28;20033;-77
2022/11/07 09:08:27;;;;;;;6.80;1.70;;;;;;;;;;5024480;28;20038;-75
2022/11/07 09:10:53;;;;;;;14.23;1.45;;;;;;;;;;5028254;28;20136;-77
2022/11/07 09:13:20;;;;;;;9.30;2.13;;;;;;;;;;5017076;28;20078;-77
2022/11/07 09:15:46;;;;;;;5.90;2.22;;;;;;;;;;5022096;28;20041;-77
2022/11/07 09:18:12;;;;;;;10.35;2.88;;;;;;;;;;5029110;28;21513;-77
2022/11/07 09:20:38;;;;;;;5.72;1.50;;;;;;;;;;5017866;28;20616;-77
2022/11/07 09:23:06;;;;;;;5.05;1.42;;;;;;;;;;5013845;28;20111;-77
2022/11/07 09:25:32;;;;;;;5.27;1.10;;;;;;;;;;5018652;28;20037;-77
2022/11/07 09:28:01;;;;;;;8.70;1.55;;;;;;;;;;5018551;28;20033;-76
2022/11/07 09:30:27;;;;;;;9.20;2.10;;;;;;;;;;5015250;28;20033;-76
2022/11/07 09:32:55;;;;;;;2.90;0.90;;;;;;;;;;5028079;28;20040;-77
2022/11/07 09:35:21;;;;;;;2.80;0.90;;;;;;;;;;5026390;28;21827;-76
2022/11/07 09:37:49;;;;;;;7.40;1.35;;;;;;;;;;5026087;28;20030;-75
2022/11/07 09:40:18;;;;;;;6.60;1.10;;;;;;;;;;5013509;28;20037;-75
2022/11/07 09:43:06;;;;;;;6.38;1.40;;;;;;;;;;5014553;28;20117;-77
2022/11/07 09:45:38;;;;;;;7.93;1.33;;;;;;;;;;5026556;28;20532;-76
2022/11/07 09:48:06;;;;;;;9.75;1.85;;;;;;;;;;5016731;28;20021;-77
2022/11/07 09:50:36;;;;;;;6.32;1.58;;;;;;;;;;5026743;28;20470;-77
2022/11/07 09:53:05;;;;;;;4.93;1.20;;;;;;;;;;5015627;28;20029;-77
2022/11/07 09:55:36;;;;;;;7.20;1.95;;;;;;;;;;5014306;28;20022;-77
2022/11/07 09:58:04;;;;;;;8.80;1.30;;;;;;;;;;5021654;28;20021;-74
2022/11/07 10:00:31;;;;;;;6.95;1.63;;;;;;;;;;5025338;28;20140;-75
2022/11/07 10:03:03;;;;;;;8.60;1.75;;;;;;;;;;5013192;28;20088;-76
2022/11/07 10:05:35;;;;;;;7.07;1.30;;;;;;;;;;5016918;28;20025;-76
2022/11/07 10:08:03;;;;;;;9.30;1.40;;;;;;;;;;5022684;28;20034;-77
2022/11/07 10:10:48;;;;;;;8.27;1.50;;;;;;;;;;5012488;28;20033;-76
2022/11/07 10:13:23;;;;;;;6.68;1.40;;;;;;;;;;5031736;28;20021;-77
2022/11/07 10:15:49;;;;;;;5.13;1.35;;;;;;;;;;5015536;28;20037;-76
2022/11/07 10:18:22;;;;;;;7.07;1.63;;;;;;;;;;5026085;28;20446;-75
2022/11/07 10:20:48;;;;;;;7.00;1.52;;;;;;;;;;5024367;28;20037;-76
2022/11/07 10:23:25;;;;;;;7.13;2.10;;;;;;;;;;5011755;28;20034;-76
2022/11/07 10:25:54;;;;;;;9.43;1.40;;;;;;;;;;5014174;28;20045;-76
2022/11/07 10:28:21;;;;;;;7.35;1.25;;;;;;;;;;5014524;28;20042;-76
2022/11/07 10:30:48;;;;;;;8.77;1.92;;;;;;;;;;5016332;28;20062;-78
2022/11/07 10:33:17;;;;;;;9.20;1.20;;;;;;;;;;5026723;28;20543;-77
2022/11/07 10:35:50;;;;;;;4.32;1.30;;;;;;;;;;5012990;28;20025;-77
2022/11/07 10:38:26;;;;;;;6.45;2.05;;;;;;;;;;5015530;28;20404;-77
2022/11/07 10:40:55;;;;;;;8.70;1.85;;;;;;;;;;5029368;28;20025;-77
2022/11/07 10:43:33;;;;;;;6.90;1.30;;;;;;;;;;5023339;28;20033;-78
2022/11/07 10:46:35;;;;;;;3.83;1.25;;;;;;;;;;5023217;28;20080;-77
2022/11/07 10:49:01;;;;;;;4.60;0.73;;;;;;;;;;5022989;28;20135;-75
2022/11/07 10:51:34;;;;;;;9.30;1.25;;;;;;;;;;5027583;28;20046;-78
2022/11/07 10:54:00;;;;;;;;;;;;;;;;;;5023368;28;20038;-78
2022/11/07 10:56:26;;;;;;;12.23;1.33;;;;;;;;;;5026299;28;19942;-76
2022/11/07 10:58:55;;;;;;;6.07;1.10;;;;;;;;;;5017621;28;21665;-77
2022/11/07 11:01:25;;;;;;;9.38;2.58;;;;;;;;;;5027361;28;20041;-76
2022/11/07 11:03:54;;;;;;;9.38;1.10;;;;;;;;;;5012855;28;20022;-78
2022/11/07 11:06:22;;;;;;;4.57;1.10;;;;;;;;;;5015077;28;20037;-77
2022/11/07 11:08:49;;;;;;;5.07;1.45;;;;;;;;;;5013682;28;20120;-75
2022/11/07 11:11:19;;;;;;;3.92;1.10;;;;;;;;;;5028057;28;20034;-76
2022/11/07 11:13:45;;;;;;;6.38;1.40;;;;;;;;;;5028170;28;20025;-76
2022/11/07 11:16:11;;;;;;;5.68;1.10;;;;;;;;;;5025331;28;20146;-77
2022/11/07 11:18:37;;;;;;;3.35;0.88;;;;;;;;;;5018527;28;20879;-77
2022/11/07 11:21:05;;;;;;;3.70;0.63;;;;;;;;;;5016763;28;20354;-77
2022/11/07 11:23:34;;;;;;;4.30;0.70;;;;;;;;;;5028490;28;20026;-78
2022/11/07 11:26:02;;;;;;;4.28;0.88;;;;;;;;;;5019053;28;20457;-74
2022/11/07 11:28:32;;;;;;;3.83;0.60;;;;;;;;;;5031149;28;20507;-75
2022/11/07 11:31:00;;;;;;;4.55;0.85;;;;;;;;;;5018095;28;20041;-76
2022/11/07 11:33:31;;;;;;;3.28;0.80;;;;;;;;;;5029936;28;20048;-78
2022/11/07 11:36:10;;;;;;;3.35;0.55;;;;;;;;;;5017551;28;20038;-77
2022/11/07 11:38:37;;;;;;;3.53;0.80;;;;;;;;;;5031284;28;20048;-76
2022/11/07 11:41:21;;;;;;;3.28;0.98;;;;;;;;;;5027287;28;21570;-76
2022/11/07 11:43:51;;;;;;;3.72;0.70;;;;;;;;;;5017185;28;20377;-76
2022/11/07 11:46:46;;;;;;;3.08;0.80;;;;;;;;;;5030524;28;20021;-77
2022/11/07 11:49:18;;;;;;;2.92;0.80;;;;;;;;;;5015482;28;20045;-78
2022/11/07 11:51:49;;;;;;;4.57;0.77;;;;;;;;;;5017853;28;20441;-77
2022/11/07 11:54:16;;;;;;;3.92;0.80;;;;;;;;;;5030711;28;20045;-77
2022/11/07 11:56:49;;;;;;;2.17;0.68;;;;;;;;;;5034077;28;21650;-77
2022/11/07 11:59:30;;;;;;;5.65;0.98;;;;;;;;;;5025754;28;20033;-77
2022/11/07 12:01:56;;;;;;;5.72;1.02;;;;;;;;;;5026350;28;20414;-76
2022/11/07 12:04:27;;;;;;;2.28;0.57;;;;;;;;;;5018138;28;20033;-77
2022/11/07 12:07:01;;;;;;;3.20;0.70;;;;;;;;;;5019186;28;20051;-77
2022/11/07 12:09:50;;;;;;;5.93;0.90;;;;;;;;;;5029282;28;20036;-75
2022/11/07 12:12:16;;;;;;;6.18;1.15;;;;;;;;;;5030365;28;20029;-77
2022/11/07 12:15:04;;;;;;;4.57;1.38;;;;;;;;;;5015763;28;20026;-76
2022/11/07 12:17:46;;;;;;;2.70;0.73;;;;;;;;;;5025585;28;20071;-77
2022/11/07 12:20:21;;;;;;;3.20;0.90;;;;;;;;;;5029317;28;20029;-76
2022/11/07 12:22:52;;;;;;;3.70;0.70;;;;;;;;;;5018369;28;20030;-75
2022/11/07 12:25:18;;;;;;;3.97;0.80;;;;;;;;;;5031894;28;20136;-76
2022/11/07 12:27:47;;;;;;;4.57;1.30;;;;;;;;;;5027797;28;20462;-77
2022/11/07 12:30:26;;;;;;;3.25;0.70;;;;;;;;;;5023993;28;20039;-76
2022/11/07 12:32:52;;;;;;;4.25;0.93;;;;;;;;;;5029680;28;20354;-77
2022/11/07 12:35:33;;;;;;;6.82;0.90;;;;;;;;;;5024578;28;20033;-77
2022/11/07 12:38:10;;;;;;;3.55;0.73;;;;;;;;;;5024865;28;20071;-77
2022/11/07 12:40:36;;;;;;;4.65;1.13;;;;;;;;;;5016724;28;20045;-76
2022/11/07 12:43:16;;;;;;;4.10;0.70;;;;;;;;;;5017761;28;20026;-77
2022/11/07 12:45:52;;;;;;;3.22;0.43;;;;;;;;;;5034659;28;20026;-78
2022/11/07 12:48:21;;;;;;;5.78;0.77;;;;;;;;;;5015966;28;20056;-77
2022/11/07 12:50:57;;;;;;;4.20;0.75;;;;;;;;;;5015312;28;20041;-76
2022/11/07 12:53:37;;;;;;;3.50;0.73;;;;;;;;;;5014860;28;20416;-77
2022/11/07 12:56:07;;;;;;;4.78;0.50;;;;;;;;;;5024352;28;20113;-77
2022/11/07 12:58:34;;;;;;;2.53;0.75;;;;;;;;;;5016840;28;20061;-78
2022/11/07 13:01:02;;;;;;;2.55;0.60;;;;;;;;;;5016091;28;20202;-77
2022/11/07 13:03:47;;;;;;;4.35;1.13;;;;;;;;;;5022499;28;20648;-76
2022/11/07 13:06:19;;;;;;;3.50;0.82;;;;;;;;;;5014435;28;20639;-77
2022/11/07 13:09:03;;;;;;;1.40;0.52;;;;;;;;;;5015552;28;20034;-77
2022/11/07 13:11:48;;;;;;;3.83;0.60;;;;;;;;;;5021918;28;20037;-77
2022/11/07 13:14:19;;;;;;;4.07;0.63;;;;;;;;;;5028025;28;20034;-75
2022/11/07 13:16:50;;;;;;;2.22;0.55;;;;;;;;;;5028713;28;20041;-75
2022/11/07 13:19:22;;;;;;;4.38;0.45;;;;;;;;;;5029609;28;20021;-76
2022/11/07 13:21:57;;;;;;;1.92;0.30;;;;;;;;;;5016254;28;20033;-76
2022/11/07 13:24:26;;;;;;;2.42;0.52;;;;;;;;;;5016371;28;20097;-77
2022/11/07 13:26:52;;;;;;;2.20;0.55;;;;;;;;;;5016917;28;20052;-78
2022/11/07 13:29:44;;;;;;;1.92;0.68;;;;;;;;;;5022863;28;20030;-77
2022/11/07 13:32:11;;;;;;;0.90;0.32;;;;;;;;;;5014763;28;20067;-77
2022/11/07 13:34:56;;;;;;;1.75;0.30;;;;;;;;;;5015807;28;20034;-77
2022/11/07 13:37:27;;;;;;;6.88;1.40;;;;;;;;;;5016658;28;20152;-75
2022/11/07 13:39:56;;;;;;;3.63;0.60;;;;;;;;;;5020248;28;20038;-76
2022/11/07 13:42:23;;;;;;;4.45;0.82;;;;;;;;;;5017239;28;20037;-76
2022/11/07 13:44:51;;;;;;;2.92;0.85;;;;;;;;;;5027187;28;20029;-78
2022/11/07 13:47:20;;;;;;;5.60;0.90;;;;;;;;;;5015427;28;20030;-76
2022/11/07 13:49:47;;;;;;;4.72;1.40;;;;;;;;;;5025218;28;20124;-76
2022/11/07 13:52:36;;;;;;;1.77;0.50;;;;;;;;;;5022057;28;20095;-77
2022/11/07 13:55:09;;;;;;;3.17;0.52;;;;;;;;;;5016987;28;20114;-76
2022/11/07 13:57:35;;;;;;;3.15;0.52;;;;;;;;;;5014266;28;20112;-77
2022/11/07 14:00:05;;;;;;;3.05;0.60;;;;;;;;;;5016163;28;20517;-77
2022/11/07 14:02:32;;;;;;;2.88;0.98;;;;;;;;;;5029875;28;20049;-76
2022/11/07 14:05:04;;;;;;;1.83;0.60;;;;;;;;;;5030195;28;20048;-77
2022/11/07 14:07:37;;;;;;;2.42;0.90;;;;;;;;;;5024556;28;20029;-77
2022/11/07 14:10:05;;;;;;;4.07;0.70;;;;;;;;;;5013539;28;20038;-76
2022/11/07 14:12:31;;;;;;;4.57;1.00;;;;;;;;;;5013849;28;20029;-75
2022/11/07 14:14:58;;;;;;;5.05;0.88;;;;;;;;;;5015847;28;20030;-77
2022/11/07 14:17:27;;;;;;;5.82;0.90;;;;;;;;;;5014300;28;20176;-76
2022/11/07 14:20:04;;;;;;;3.08;1.08;;;;;;;;;;5025055;28;20026;-77
2022/11/07 14:22:32;;;;;;;3.53;0.80;;;;;;;;;;5026891;28;22054;-77
2022/11/07 14:24:58;;;;;;;8.60;3.88;;;;;;;;;;5015446;28;20041;-76
2022/11/07 14:27:24;;;;;;;4.15;0.82;;;;;;;;;;5014320;28;20038;-77
2022/11/07 14:29:51;;;;;;;5.82;1.30;;;;;;;;;;5016815;28;20030;-76
2022/11/07 14:32:17;;;;;;;4.93;1.08;;;;;;;;;;5013589;28;20121;-77
2022/11/07 14:34:44;;;;;;;5.13;1.55;;;;;;;;;;5026843;28;20048;-78
2022/11/07 14:37:15;;;;;;;4.07;0.73;;;;;;;;;;5026380;28;20068;-77
2022/11/07 14:39:44;;;;;;;4.40;0.93;;;;;;;;;;5014629;28;20038;-77
2022/11/07 14:42:13;;;;;;;7.25;1.17;;;;;;;;;;5024166;28;20080;-77
2022/11/07 14:44:46;;;;;;;3.10;0.70;;;;;;;;;;5014161;28;20346;-77
2022/11/07 14:47:15;;;;;;;3.63;0.82;;;;;;;;;;5021992;28;20025;-76
2022/11/07 14:49:45;;;;;;;5.70;1.05;;;;;;;;;;5019852;28;20041;-77
2022/11/07 14:52:19;;;;;;;3.42;0.80;;;;;;;;;;5018830;28;20103;-75
2022/11/07 14:54:49;;;;;;;3.97;1.10;;;;;;;;;;5019308;28;20026;-77
2022/11/07 14:57:15;;;;;;;6.50;1.27;;;;;;;;;;5030035;28;20036;-77
2022/11/07 14:59:42;;;;;;;4.45;1.00;;;;;;;;;;5018336;28;20060;-77
2022/11/07 15:02:17;;;;;;;2.65;0.90;;;;;;;;;;5016717;28;20033;-76
2022/11/07 15:04:44;;;;;;;4.05;0.63;;;;;;;;;;5017153;28;20100;-77